createdAt,value
2019-03-18T00:00:19.212Z,2.40
2019-03-18T00:02:47.422Z,2.20
2019-03-18T00:05:15.663Z,2.80
2019-03-18T00:07:43.953Z,2.40
2019-03-18T00:10:12.261Z,2.10
2019-03-18T00:12:40.546Z,2.67
2019-03-18T00:15:09.244Z,2.80
2019-03-18T00:17:37.462Z,2.20
2019-03-18T00:20:07.973Z,2.63
2019-03-18T00:22:36.507Z,3.00
2019-03-18T00:25:10.380Z,2.90
2019-03-18T00:27:38.593Z,2.60
2019-03-18T00:30:15.241Z,3.83
2019-03-18T00:32:43.525Z,3.10
2019-03-18T00:35:12.634Z,2.67
2019-03-18T00:37:40.848Z,2.67
2019-03-18T00:40:12.917Z,4.03
2019-03-18T00:42:41.454Z,2.37
2019-03-18T00:45:15.150Z,2.40
2019-03-18T00:47:40.136Z,4.60
2019-03-18T00:50:09.548Z,2.33
2019-03-18T00:52:37.756Z,2.30
2019-03-18T00:55:07.555Z,2.10
2019-03-18T00:57:35.824Z,2.87
2019-03-18T01:00:14.460Z,3.50
2019-03-18T01:02:42.680Z,3.43
2019-03-18T01:05:11.155Z,3.40
2019-03-18T01:07:39.583Z,3.03
2019-03-18T01:10:11.156Z,2.60
2019-03-18T01:12:39.398Z,2.03
2019-03-18T01:15:09.145Z,3.40
2019-03-18T01:17:37.354Z,5.27
2019-03-18T01:20:06.873Z,2.67
2019-03-18T01:22:35.157Z,2.80
2019-03-18T01:25:03.674Z,2.67
2019-03-18T01:27:31.909Z,3.13
2019-03-18T01:30:00.370Z,2.87
2019-03-18T01:32:28.677Z,2.70
2019-03-18T01:34:56.873Z,2.70
2019-03-18T01:37:25.113Z,6.50
2019-03-18T01:39:53.324Z,2.40
2019-03-18T01:42:21.570Z,2.40
2019-03-18T01:44:49.784Z,2.67
2019-03-18T01:47:18.041Z,3.10
2019-03-18T01:49:46.251Z,2.87
2019-03-18T01:52:14.467Z,8.10
2019-03-18T01:54:42.709Z,2.70
2019-03-18T01:57:10.920Z,3.53
2019-03-18T01:59:39.171Z,4.77
2019-03-18T02:02:07.376Z,3.17
2019-03-18T02:04:35.625Z,2.47
2019-03-18T02:07:03.842Z,2.70
2019-03-18T02:09:32.081Z,2.80
2019-03-18T02:12:00.293Z,2.50
2019-03-18T02:14:28.536Z,3.07
2019-03-18T02:16:56.745Z,2.40
2019-03-18T02:19:25.061Z,2.80
2019-03-18T02:21:53.669Z,3.40
2019-03-18T02:24:21.912Z,2.93
2019-03-18T02:26:50.128Z,3.03
2019-03-18T02:29:18.367Z,2.50
2019-03-18T02:31:46.572Z,2.17
2019-03-18T02:34:14.790Z,2.27
2019-03-18T02:36:43.031Z,2.23
2019-03-18T02:39:11.243Z,2.20
2019-03-18T02:41:39.497Z,2.60
2019-03-18T02:44:07.706Z,4.37
2019-03-18T02:46:35.945Z,3.00
2019-03-18T02:49:04.221Z,2.30
2019-03-18T02:51:32.526Z,2.67
2019-03-18T02:54:00.733Z,2.40
2019-03-18T02:56:29.002Z,8.47
2019-03-18T02:58:57.513Z,2.47
2019-03-18T03:01:25.758Z,2.40
2019-03-18T03:03:53.974Z,2.33
2019-03-18T03:06:22.214Z,1.93
2019-03-18T03:08:50.526Z,2.73
2019-03-18T03:11:19.061Z,2.67
2019-03-18T03:13:47.277Z,5.10
2019-03-18T03:16:26.434Z,2.23
2019-03-18T03:18:45.719Z,2.70
2019-03-18T03:21:13.947Z,2.60
2019-03-18T03:23:42.168Z,2.40
2019-03-18T03:26:10.410Z,2.40
2019-03-18T03:28:38.688Z,2.57
2019-03-18T03:31:06.930Z,2.20
2019-03-18T03:33:35.139Z,2.33
2019-03-18T03:36:03.456Z,2.43
2019-03-18T03:38:31.665Z,2.67
2019-03-18T03:40:59.932Z,2.50
2019-03-18T03:43:28.152Z,2.60
2019-03-18T03:45:56.368Z,2.70
2019-03-18T03:48:24.611Z,2.30
2019-03-18T03:50:52.825Z,2.47
2019-03-18T03:53:21.073Z,2.40
2019-03-18T03:55:49.281Z,4.60
2019-03-18T03:58:17.521Z,2.40
2019-03-18T04:00:45.735Z,2.60
2019-03-18T04:03:14.006Z,6.73
2019-03-18T04:05:42.852Z,2.80
2019-03-18T04:08:11.172Z,2.47
2019-03-18T04:10:39.387Z,2.43
2019-03-18T04:13:07.672Z,2.23
2019-03-18T04:15:35.837Z,2.40
2019-03-18T04:18:04.160Z,2.53
2019-03-18T04:20:32.372Z,2.50
2019-03-18T04:23:00.580Z,2.50
2019-03-18T04:25:29.153Z,2.60
2019-03-18T04:27:57.377Z,3.00
2019-03-18T04:30:25.712Z,3.87
2019-03-18T04:32:53.925Z,2.77
2019-03-18T04:35:22.168Z,2.53
2019-03-18T04:37:50.412Z,3.43
2019-03-18T04:40:18.656Z,3.63
2019-03-18T04:42:46.865Z,3.57
2019-03-18T04:45:15.112Z,2.93
2019-03-18T04:47:43.321Z,4.00
2019-03-18T04:50:12.035Z,2.67
2019-03-18T04:52:40.244Z,2.83
2019-03-18T04:55:08.852Z,3.77
2019-03-18T04:57:37.067Z,4.53
2019-03-18T05:00:06.272Z,2.73
2019-03-18T05:02:34.488Z,2.47
2019-03-18T05:05:02.732Z,2.60
2019-03-18T05:07:30.949Z,2.93
2019-03-18T05:09:59.192Z,2.63
2019-03-18T05:12:27.413Z,2.67
2019-03-18T05:14:55.658Z,3.10
2019-03-18T05:17:26.943Z,2.70
2019-03-18T05:19:53.760Z,2.47
2019-03-18T05:22:21.973Z,2.83
2019-03-18T05:24:50.217Z,3.07
2019-03-18T05:27:18.428Z,2.70
2019-03-18T05:29:46.677Z,2.53
2019-03-18T05:32:14.887Z,3.17
2019-03-18T05:34:43.138Z,3.17
2019-03-18T05:37:11.373Z,2.60
2019-03-18T05:39:39.593Z,2.70
2019-03-18T05:42:07.837Z,2.37
2019-03-18T05:44:36.081Z,2.90
2019-03-18T05:47:04.369Z,2.63
2019-03-18T05:49:32.604Z,2.73
2019-03-18T05:52:00.820Z,2.73
2019-03-18T05:54:29.061Z,4.57
2019-03-18T05:56:57.304Z,13.00
2019-03-18T05:59:25.544Z,3.80
2019-03-18T06:01:53.760Z,3.70
2019-03-18T06:04:21.964Z,3.80
2019-03-18T06:06:50.208Z,2.70
2019-03-18T06:09:18.424Z,3.60
2019-03-18T06:11:46.671Z,4.57
2019-03-18T06:14:14.884Z,3.57
2019-03-18T06:16:43.128Z,3.80
2019-03-18T06:19:11.404Z,3.10
2019-03-18T06:21:39.620Z,3.40
2019-03-18T06:24:07.861Z,6.63
2019-03-18T06:26:36.078Z,2.87
2019-03-18T06:29:04.316Z,2.77
2019-03-18T06:31:32.524Z,2.93
2019-03-18T06:34:00.764Z,3.23
2019-03-18T06:36:29.048Z,3.43
2019-03-18T06:38:57.284Z,3.33
2019-03-18T06:41:25.501Z,4.23
2019-03-18T06:43:53.744Z,5.40
2019-03-18T06:46:21.957Z,3.43
2019-03-18T06:48:50.191Z,5.50
2019-03-18T06:51:18.332Z,3.47
2019-03-18T06:53:46.576Z,3.70
2019-03-18T06:56:14.851Z,6.37
2019-03-18T06:58:43.091Z,3.73
2019-03-18T07:01:11.305Z,3.33
2019-03-18T07:03:39.553Z,5.90
2019-03-18T07:06:07.760Z,6.33
2019-03-18T07:08:36.004Z,5.30
2019-03-18T07:11:04.285Z,5.87
2019-03-18T07:13:32.520Z,4.63
2019-03-18T07:16:00.732Z,4.17
2019-03-18T07:18:28.953Z,3.60
2019-03-18T07:20:57.189Z,4.73
2019-03-18T07:23:25.401Z,5.10
2019-03-18T07:25:53.713Z,2.87
2019-03-18T07:28:21.929Z,5.10
2019-03-18T07:30:50.173Z,3.90
2019-03-18T07:33:18.380Z,5.43
2019-03-18T07:35:46.629Z,4.63
2019-03-18T07:38:14.876Z,10.07
2019-03-18T07:40:43.080Z,4.93
2019-03-18T07:43:11.325Z,5.47
2019-03-18T07:45:39.536Z,5.73
2019-03-18T07:48:07.777Z,5.03
2019-03-18T07:50:35.989Z,5.23
2019-03-18T07:53:04.297Z,6.03
2019-03-18T07:55:32.508Z,4.00
2019-03-18T07:58:00.748Z,5.47
2019-03-18T08:00:28.966Z,3.37
2019-03-18T08:02:57.537Z,4.43
2019-03-18T08:05:26.063Z,4.43
2019-03-18T08:07:54.633Z,4.13
2019-03-18T08:10:22.912Z,4.80
2019-03-18T08:12:51.123Z,3.03
2019-03-18T08:15:19.370Z,4.53
2019-03-18T08:17:47.581Z,3.83
2019-03-18T08:20:15.825Z,2.57
2019-03-18T08:22:44.036Z,8.87
2019-03-18T08:25:12.348Z,6.90
2019-03-18T08:27:40.570Z,3.73
2019-03-18T08:30:16.276Z,3.80
2019-03-18T08:32:44.484Z,8.07
2019-03-18T08:35:12.732Z,3.90
2019-03-18T08:37:41.016Z,3.30
2019-03-18T08:40:10.914Z,4.17
2019-03-18T08:42:39.124Z,5.67
2019-03-18T08:45:12.052Z,5.07
2019-03-18T08:47:40.659Z,4.07
2019-03-18T08:50:12.306Z,4.00
2019-03-18T08:52:40.424Z,3.93
2019-03-18T08:55:10.333Z,4.13
2019-03-18T08:57:38.552Z,3.60
2019-03-18T09:00:08.345Z,5.40
2019-03-18T09:02:36.875Z,3.93
2019-03-18T09:05:06.481Z,6.17
2019-03-18T09:07:35.021Z,4.17
2019-03-18T09:10:04.437Z,4.40
2019-03-18T09:12:33.040Z,4.50
2019-03-18T09:15:01.610Z,4.80
2019-03-18T09:17:29.977Z,10.33
2019-03-18T09:19:58.207Z,5.73
2019-03-18T09:22:26.740Z,5.30
2019-03-18T09:24:55.308Z,4.13
2019-03-18T09:27:23.520Z,5.27
2019-03-18T09:29:51.760Z,4.00
2019-03-18T09:32:19.967Z,4.87
2019-03-18T09:34:48.541Z,4.17
2019-03-18T09:37:17.076Z,8.57
2019-03-18T09:39:45.650Z,8.93
2019-03-18T09:42:14.192Z,5.30
2019-03-18T09:44:42.396Z,4.77
2019-03-18T09:47:10.636Z,3.17
2019-03-18T09:49:39.177Z,4.50
2019-03-18T09:52:07.416Z,4.90
2019-03-18T09:54:35.740Z,2.97
2019-03-18T09:57:04.372Z,6.73
2019-03-18T09:59:33.468Z,3.40
2019-03-18T10:02:01.717Z,3.40
2019-03-18T10:04:29.926Z,4.43
2019-03-18T10:06:58.161Z,2.73
2019-03-18T10:09:26.408Z,2.90
2019-03-18T10:11:54.953Z,8.30
2019-03-18T10:14:23.171Z,4.27
2019-03-18T10:16:51.732Z,7.00
2019-03-18T10:19:20.276Z,2.43
2019-03-18T10:21:48.849Z,2.50
2019-03-18T10:24:17.065Z,16.27
2019-03-18T10:26:45.312Z,5.60
2019-03-18T10:29:13.529Z,1.80
2019-03-18T10:31:41.773Z,2.40
2019-03-18T10:34:09.986Z,3.13
2019-03-18T10:36:38.219Z,2.60
2019-03-18T10:39:06.904Z,2.30
2019-03-18T10:41:35.150Z,2.50
2019-03-18T10:44:03.360Z,2.27
2019-03-18T10:46:31.932Z,4.03
2019-03-18T10:49:00.144Z,2.53
2019-03-18T10:51:28.394Z,2.20
2019-03-18T10:53:56.623Z,2.47
2019-03-18T10:56:24.840Z,3.47
2019-03-18T10:58:53.052Z,5.50
2019-03-18T11:01:21.309Z,10.77
2019-03-18T11:03:49.499Z,6.43
2019-03-18T11:06:17.750Z,2.97
2019-03-18T11:08:45.958Z,2.10
2019-03-18T11:11:14.203Z,2.20
2019-03-18T11:13:42.417Z,3.00
2019-03-18T11:16:10.665Z,2.53
2019-03-18T11:18:38.878Z,2.60
2019-03-18T11:21:07.128Z,2.20
2019-03-18T11:23:35.350Z,2.30
2019-03-18T11:26:03.720Z,2.23
2019-03-18T11:28:31.955Z,2.30
2019-03-18T11:31:00.628Z,2.03
2019-03-18T11:33:28.865Z,2.40
2019-03-18T11:35:57.077Z,2.10
2019-03-18T11:38:25.324Z,2.83
2019-03-18T11:40:53.637Z,2.00
2019-03-18T11:43:21.957Z,1.80
2019-03-18T11:45:50.192Z,2.57
2019-03-18T11:48:18.436Z,2.40
2019-03-18T11:50:46.648Z,2.70
2019-03-18T11:53:15.051Z,2.27
2019-03-18T11:55:43.314Z,2.60
2019-03-18T11:58:11.640Z,2.67
2019-03-18T12:00:39.858Z,2.10
2019-03-18T12:03:08.449Z,2.20
2019-03-18T12:05:36.665Z,3.10
2019-03-18T12:08:04.904Z,2.90
2019-03-18T12:10:33.123Z,3.10
2019-03-18T12:13:01.370Z,3.20
2019-03-18T12:15:29.901Z,2.87
2019-03-18T12:17:58.145Z,2.07
2019-03-18T12:20:26.374Z,3.67
2019-03-18T12:22:54.687Z,3.07
2019-03-18T12:25:22.964Z,2.43
2019-03-18T12:27:51.205Z,6.80
2019-03-18T12:30:27.286Z,7.30
2019-03-18T12:32:55.864Z,2.87
2019-03-18T12:35:24.249Z,2.33
2019-03-18T12:37:53.161Z,2.50
2019-03-18T12:40:21.389Z,2.77
2019-03-18T12:42:50.109Z,2.20
2019-03-18T12:45:20.550Z,2.60
2019-03-18T12:47:49.157Z,2.57
2019-03-18T12:50:18.944Z,2.63
2019-03-18T12:52:47.616Z,2.50
2019-03-18T12:55:16.329Z,3.83
2019-03-18T12:57:45.006Z,2.70
2019-03-18T13:00:31.912Z,2.47
2019-03-18T13:03:00.590Z,2.30
2019-03-18T13:05:29.297Z,2.60
2019-03-18T13:07:58.073Z,3.33
2019-03-18T13:10:26.781Z,2.17
2019-03-18T13:12:55.319Z,2.10
2019-03-18T13:15:23.957Z,2.83
2019-03-18T13:17:52.501Z,3.90
2019-03-18T13:20:21.112Z,2.57
2019-03-18T13:22:49.724Z,1.93
2019-03-18T13:25:17.964Z,2.30
2019-03-18T13:27:46.173Z,3.87
2019-03-18T13:30:15.671Z,2.37
2019-03-18T13:32:44.001Z,2.40
2019-03-18T13:35:12.704Z,2.97
2019-03-18T13:37:41.381Z,2.07
2019-03-18T13:40:12.668Z,1.73
2019-03-18T13:42:41.193Z,2.30
2019-03-18T13:45:18.434Z,6.77
2019-03-18T13:47:47.041Z,3.20
2019-03-18T13:50:16.818Z,3.73
2019-03-18T13:52:45.063Z,2.10
2019-03-18T13:55:13.276Z,2.73
2019-03-18T13:57:41.880Z,2.60
2019-03-18T14:00:16.348Z,2.30
2019-03-18T14:02:45.196Z,2.30
2019-03-18T14:05:14.008Z,3.13
2019-03-18T14:07:42.616Z,2.13
2019-03-18T14:10:16.583Z,2.33
2019-03-18T14:12:45.118Z,2.00
2019-03-18T14:15:15.629Z,3.70
2019-03-18T14:17:43.901Z,1.93
2019-03-18T14:20:17.504Z,2.47
2019-03-18T14:22:45.784Z,6.33
2019-03-18T14:25:14.501Z,3.40
2019-03-18T14:27:43.102Z,2.60
2019-03-18T14:30:16.365Z,4.00
2019-03-18T14:32:45.000Z,2.20
2019-03-18T14:35:13.968Z,2.40
2019-03-18T14:37:42.608Z,2.10
2019-03-18T14:40:16.896Z,2.70
2019-03-18T14:42:45.208Z,2.43
2019-03-18T14:45:20.871Z,5.00
2019-03-18T14:47:49.347Z,2.63
2019-03-18T14:50:18.534Z,2.53
2019-03-18T14:52:47.650Z,3.00
2019-03-18T14:55:17.216Z,2.17
2019-03-18T14:57:45.584Z,2.13
2019-03-18T15:00:24.730Z,2.43
2019-03-18T15:02:53.301Z,2.13
2019-03-18T15:05:21.914Z,1.90
2019-03-18T15:07:50.541Z,2.47
2019-03-18T15:10:24.436Z,4.70
2019-03-18T15:12:53.009Z,2.33
2019-03-18T15:15:21.812Z,2.50
2019-03-18T15:17:51.148Z,2.40
2019-03-18T15:20:27.653Z,2.47
2019-03-18T15:22:56.287Z,2.63
2019-03-18T15:25:30.316Z,2.60
2019-03-18T15:27:58.885Z,1.90
2019-03-18T15:30:27.499Z,24.03
2019-03-18T15:32:55.750Z,6.90
2019-03-18T15:35:24.280Z,3.23
2019-03-18T15:37:52.916Z,4.57
2019-03-18T15:40:24.401Z,4.17
2019-03-18T15:42:52.979Z,11.50
2019-03-18T15:45:22.245Z,3.83
2019-03-18T15:47:50.880Z,4.27
2019-03-18T15:50:24.014Z,4.77
2019-03-18T15:52:52.720Z,4.87
2019-03-18T15:55:23.758Z,4.10
2019-03-18T15:57:51.724Z,13.53
2019-03-18T16:00:30.113Z,7.40
2019-03-18T16:02:58.697Z,9.13
2019-03-18T16:05:27.232Z,4.47
2019-03-18T16:07:55.936Z,4.70
2019-03-18T16:10:24.477Z,3.13
2019-03-18T16:12:53.041Z,4.60
2019-03-18T16:15:21.576Z,3.23
2019-03-18T16:17:50.120Z,5.43
2019-03-18T16:20:23.126Z,2.33
2019-03-18T16:22:51.757Z,5.10
2019-03-18T16:25:20.437Z,2.60
2019-03-18T16:27:49.140Z,5.03
2019-03-18T16:30:18.917Z,3.73
2019-03-18T16:32:47.488Z,4.53
2019-03-18T16:35:17.022Z,7.20
2019-03-18T16:37:45.793Z,8.50
2019-03-18T16:40:16.861Z,8.30
2019-03-18T16:42:45.454Z,6.73
2019-03-18T16:45:15.569Z,9.90
2019-03-18T16:47:44.173Z,11.10
2019-03-18T16:50:17.975Z,6.50
2019-03-18T16:52:46.192Z,6.77
2019-03-18T16:55:14.837Z,5.23
2019-03-18T16:57:43.507Z,7.07
2019-03-18T17:00:17.728Z,6.97
2019-03-18T17:02:46.340Z,6.90
2019-03-18T17:05:14.972Z,6.10
2019-03-18T17:07:43.853Z,7.07
2019-03-18T17:10:13.858Z,7.20
2019-03-18T17:12:42.465Z,9.93
2019-03-18T17:15:13.449Z,9.73
2019-03-18T17:17:41.988Z,8.73
2019-03-18T17:20:14.425Z,6.93
2019-03-18T17:22:49.226Z,4.77
2019-03-18T17:25:16.157Z,7.10
2019-03-18T17:27:44.701Z,8.37
2019-03-18T17:30:18.309Z,8.20
2019-03-18T17:32:47.168Z,6.27
2019-03-18T17:35:15.807Z,11.33
2019-03-18T17:37:44.429Z,8.00
2019-03-18T17:40:14.750Z,10.27
2019-03-18T17:42:43.428Z,10.63
2019-03-18T17:45:15.958Z,13.33
2019-03-18T17:47:44.592Z,10.60
2019-03-18T17:50:21.675Z,7.93
2019-03-18T17:53:01.825Z,7.00
2019-03-18T17:55:20.233Z,7.07
2019-03-18T17:57:48.773Z,8.07
2019-03-18T18:00:19.037Z,8.80
2019-03-18T18:02:47.244Z,13.50
2019-03-18T18:05:15.805Z,8.27
2019-03-18T18:07:44.341Z,7.13
2019-03-18T18:10:12.912Z,6.63
2019-03-18T18:12:41.448Z,16.80
2019-03-18T18:15:11.951Z,12.20
2019-03-18T18:17:40.537Z,12.13
2019-03-18T18:20:11.693Z,9.50
2019-03-18T18:22:41.165Z,9.83
2019-03-18T18:25:10.216Z,10.07
2019-03-18T18:27:38.781Z,19.57
2019-03-18T18:30:15.088Z,21.47
2019-03-18T18:32:43.804Z,24.93
2019-03-18T18:35:12.838Z,28.90
2019-03-18T18:37:41.401Z,30.20
2019-03-18T18:40:24.668Z,25.77
2019-03-18T18:42:53.305Z,21.27
2019-03-18T18:45:21.535Z,18.30
2019-03-18T18:47:50.165Z,17.60
2019-03-18T18:50:18.444Z,12.77
2019-03-18T18:52:47.021Z,12.27
2019-03-18T18:55:15.696Z,11.73
2019-03-18T18:57:45.105Z,11.90
2019-03-18T19:00:21.872Z,9.50
2019-03-18T19:02:50.439Z,7.17
2019-03-18T19:05:19.517Z,8.07
2019-03-18T19:07:47.828Z,8.37
2019-03-18T19:10:18.582Z,8.63
2019-03-18T19:12:47.224Z,10.03
2019-03-18T19:15:23.387Z,11.70
2019-03-18T19:17:51.964Z,8.30
2019-03-18T19:20:20.507Z,7.47
2019-03-18T19:22:48.749Z,9.77
2019-03-18T19:25:17.828Z,11.80
2019-03-18T19:27:46.405Z,11.33
2019-03-18T19:30:24.406Z,9.90
2019-03-18T19:32:53.046Z,7.70
2019-03-18T19:35:21.586Z,4.23
2019-03-18T19:37:50.165Z,4.97
2019-03-18T19:40:19.040Z,4.33
2019-03-18T19:42:47.677Z,2.90
2019-03-18T19:45:16.357Z,2.90
2019-03-18T19:47:44.995Z,3.40
2019-03-18T19:50:19.011Z,3.63
2019-03-18T19:52:47.579Z,10.13
2019-03-18T19:55:16.192Z,12.77
2019-03-18T19:57:44.765Z,9.83
2019-03-18T20:00:20.498Z,4.83
2019-03-18T20:02:48.743Z,3.47
2019-03-18T20:05:18.926Z,3.30
2019-03-18T20:07:47.729Z,6.27
2019-03-18T20:10:17.508Z,3.90
2019-03-18T20:12:46.112Z,5.47
2019-03-18T20:15:18.833Z,6.80
2019-03-18T20:17:47.441Z,14.80
2019-03-18T20:20:23.411Z,5.87
2019-03-18T20:22:51.919Z,4.50
2019-03-18T20:25:20.516Z,5.03
2019-03-18T20:27:48.833Z,4.80
2019-03-18T20:30:18.468Z,4.80
2019-03-18T20:32:47.068Z,5.60
2019-03-18T20:35:22.448Z,7.30
2019-03-18T20:37:52.156Z,6.47
2019-03-18T20:40:21.021Z,4.57
2019-03-18T20:42:49.220Z,5.07
2019-03-18T20:45:27.144Z,6.67
2019-03-18T20:47:55.692Z,4.07
2019-03-18T20:50:25.044Z,4.53
2019-03-18T20:52:53.566Z,4.40
2019-03-18T20:55:21.881Z,4.47
2019-03-18T20:57:50.476Z,5.70
2019-03-18T21:00:20.291Z,6.57
2019-03-18T21:02:48.812Z,8.63
2019-03-18T21:05:17.535Z,5.87
2019-03-18T21:07:46.128Z,8.10
2019-03-18T21:10:20.968Z,19.63
2019-03-18T21:12:49.631Z,13.27
2019-03-18T21:15:18.941Z,9.60
2019-03-18T21:17:47.720Z,4.17
2019-03-18T21:20:28.118Z,4.60
2019-03-18T21:22:56.325Z,3.97
2019-03-18T21:25:24.962Z,4.13
2019-03-18T21:27:53.176Z,4.77
2019-03-18T21:30:23.447Z,7.27
2019-03-18T21:32:52.121Z,5.23
2019-03-18T21:35:20.811Z,7.57
2019-03-18T21:37:49.344Z,11.17
2019-03-18T21:40:19.059Z,7.47
2019-03-18T21:42:47.683Z,7.17
2019-03-18T21:45:24.023Z,5.80
2019-03-18T21:47:52.720Z,7.33
2019-03-18T21:50:21.465Z,6.10
2019-03-18T21:52:50.086Z,4.80
2019-03-18T21:55:18.712Z,4.60
2019-03-18T21:57:47.313Z,5.67
2019-03-18T22:00:20.925Z,5.40
2019-03-18T22:02:49.536Z,6.83
2019-03-18T22:05:18.205Z,7.57
2019-03-18T22:07:46.735Z,6.80
2019-03-18T22:10:21.433Z,7.97
2019-03-18T22:12:50.408Z,5.40
2019-03-18T22:15:19.319Z,11.17
2019-03-18T22:17:47.531Z,5.33
2019-03-18T22:20:16.112Z,6.40
2019-03-18T22:22:44.381Z,5.57
2019-03-18T22:25:13.967Z,5.73
2019-03-18T22:27:42.208Z,4.90
2019-03-18T22:30:11.589Z,7.50
2019-03-18T22:32:39.911Z,4.13
2019-03-18T22:35:08.383Z,5.60
2019-03-18T22:37:36.644Z,9.83
2019-03-18T22:40:06.212Z,3.93
2019-03-18T22:42:34.463Z,10.00
2019-03-18T22:45:03.140Z,12.00
2019-03-18T22:47:31.392Z,4.93
2019-03-18T22:49:59.605Z,5.47
2019-03-18T22:52:27.850Z,5.63
2019-03-18T22:54:56.367Z,5.53
2019-03-18T22:57:24.696Z,6.33
2019-03-18T22:59:52.910Z,4.73
2019-03-18T23:02:21.151Z,6.00
2019-03-18T23:04:49.432Z,4.73
2019-03-18T23:07:17.677Z,4.90
2019-03-18T23:09:45.881Z,5.57
2019-03-18T23:12:14.125Z,5.47
2019-03-18T23:14:42.328Z,4.93
2019-03-18T23:17:10.572Z,3.77
2019-03-18T23:19:38.852Z,4.87
2019-03-18T23:22:07.088Z,4.70
2019-03-18T23:24:35.299Z,4.00
2019-03-18T23:27:03.539Z,4.20
2019-03-18T23:29:31.757Z,7.47
2019-03-18T23:31:59.997Z,4.43
2019-03-18T23:34:28.901Z,3.80
2019-03-18T23:36:57.160Z,3.90
2019-03-18T23:39:25.372Z,5.83
2019-03-18T23:41:53.596Z,8.07
2019-03-18T23:44:22.164Z,4.27
2019-03-18T23:46:50.372Z,10.17
2019-03-18T23:49:18.612Z,5.50
2019-03-18T23:51:46.820Z,3.97
2019-03-18T23:54:15.076Z,4.87
2019-03-18T23:56:43.272Z,4.40
2019-03-18T23:59:11.528Z,4.90
